Terminal Aerodrome Forecast
Issued by NWS Austin/San Antonio, TX

Home | Current Version | Previous Version | Text Only | Print | Product List | Glossary On
Versions: 1 2 3 4 5 6 7 8 9 10 11 12 13 14 15 16 17 18 19 20 21 22
000
FTUS44 KEWX 181900 AAA
TAFSAT
TAF AMD
KSAT 181924Z 1819/1924 07004KT P6SM SCT015 BKN060
     FM190100 07004KT P6SM VCSH OVC009
     FM190300 06006KT 3SM -SHRA BR OVC006
     FM190600 02007KT 3SM SHRA BR OVC004 PROB30 1906/1912 2SM TSRA
      BR BKN006 OVC035CB
     FM191600 02010KT P6SM VCSH OVC009
     FM192100 02010KT P6SM OVC020=

USA.gov is the U.S. government's official web portal to all federal, state and local government web resources and services.